sensor_id;sensor_type;location;lat;lon;timestamp;P1;durP1;ratioP1;P2;durP2;ratioP2
13173;SDS011;6652;48.802;9.190;2023-11-22T00:02:15;12.30;;;5.93;;
13173;SDS011;6652;48.802;9.190;2023-11-22T00:04:43;7.70;;;4.28;;
13173;SDS011;6652;48.802;9.190;2023-11-22T00:07:10;5.30;;;3.95;;
13173;SDS011;6652;48.802;9.190;2023-11-22T00:09:38;5.65;;;3.97;;
13173;SDS011;6652;48.802;9.190;2023-11-22T00:12:05;5.55;;;4.07;;
13173;SDS011;6652;48.802;9.190;2023-11-22T00:14:33;5.57;;;3.78;;
13173;SDS011;6652;48.802;9.190;2023-11-22T00:17:01;6.18;;;4.40;;
13173;SDS011;6652;48.802;9.190;2023-11-22T00:19:28;6.32;;;4.43;;
13173;SDS011;6652;48.802;9.190;2023-11-22T00:21:55;7.50;;;4.28;;
13173;SDS011;6652;48.802;9.190;2023-11-22T00:24:22;7.13;;;4.90;;
13173;SDS011;6652;48.802;9.190;2023-11-22T00:26:50;7.15;;;4.63;;
13173;SDS011;6652;48.802;9.190;2023-11-22T00:29:17;9.73;;;5.35;;
13173;SDS011;6652;48.802;9.190;2023-11-22T00:31:44;6.93;;;4.75;;
13173;SDS011;6652;48.802;9.190;2023-11-22T00:34:11;7.72;;;4.95;;
13173;SDS011;6652;48.802;9.190;2023-11-22T00:36:37;6.72;;;5.03;;
13173;SDS011;6652;48.802;9.190;2023-11-22T00:39:05;7.90;;;4.90;;
13173;SDS011;6652;48.802;9.190;2023-11-22T00:41:32;7.63;;;4.97;;
13173;SDS011;6652;48.802;9.190;2023-11-22T00:44:02;9.73;;;5.55;;
13173;SDS011;6652;48.802;9.190;2023-11-22T00:46:30;10.30;;;5.72;;
13173;SDS011;6652;48.802;9.190;2023-11-22T00:48:57;9.20;;;6.28;;
13173;SDS011;6652;48.802;9.190;2023-11-22T00:51:24;8.20;;;6.18;;
13173;SDS011;6652;48.802;9.190;2023-11-22T00:53:51;13.63;;;6.70;;
13173;SDS011;6652;48.802;9.190;2023-11-22T00:56:18;7.70;;;5.50;;
13173;SDS011;6652;48.802;9.190;2023-11-22T00:58:44;11.70;;;6.18;;
13173;SDS011;6652;48.802;9.190;2023-11-22T01:01:14;9.13;;;6.28;;
13173;SDS011;6652;48.802;9.190;2023-11-22T01:03:41;7.18;;;5.50;;
13173;SDS011;6652;48.802;9.190;2023-11-22T01:06:08;9.05;;;6.03;;
13173;SDS011;6652;48.802;9.190;2023-11-22T01:08:35;9.63;;;5.47;;
13173;SDS011;6652;48.802;9.190;2023-11-22T01:11:02;10.48;;;6.40;;
13173;SDS011;6652;48.802;9.190;2023-11-22T01:13:30;8.57;;;5.93;;
13173;SDS011;6652;48.802;9.190;2023-11-22T01:15:58;8.63;;;5.80;;
13173;SDS011;6652;48.802;9.190;2023-11-22T01:18:26;8.82;;;5.28;;
13173;SDS011;6652;48.802;9.190;2023-11-22T01:20:53;8.73;;;6.20;;
13173;SDS011;6652;48.802;9.190;2023-11-22T01:23:20;9.10;;;6.13;;
13173;SDS011;6652;48.802;9.190;2023-11-22T01:25:46;7.70;;;5.72;;
13173;SDS011;6652;48.802;9.190;2023-11-22T01:28:15;12.70;;;6.43;;
13173;SDS011;6652;48.802;9.190;2023-11-22T01:30:42;8.23;;;5.40;;
13173;SDS011;6652;48.802;9.190;2023-11-22T01:33:10;9.68;;;6.00;;
13173;SDS011;6652;48.802;9.190;2023-11-22T01:35:39;8.18;;;5.93;;
13173;SDS011;6652;48.802;9.190;2023-11-22T01:38:05;7.53;;;5.45;;
13173;SDS011;6652;48.802;9.190;2023-11-22T01:40:33;8.38;;;5.60;;
13173;SDS011;6652;48.802;9.190;2023-11-22T01:43:00;10.30;;;5.50;;
13173;SDS011;6652;48.802;9.190;2023-11-22T01:45:29;6.55;;;4.93;;
13173;SDS011;6652;48.802;9.190;2023-11-22T01:47:55;8.20;;;5.55;;
13173;SDS011;6652;48.802;9.190;2023-11-22T01:50:22;7.43;;;5.13;;
13173;SDS011;6652;48.802;9.190;2023-11-22T01:52:51;7.85;;;4.50;;
13173;SDS011;6652;48.802;9.190;2023-11-22T01:55:17;7.22;;;5.05;;
13173;SDS011;6652;48.802;9.190;2023-11-22T01:57:44;6.28;;;4.57;;
13173;SDS011;6652;48.802;9.190;2023-11-22T02:00:11;5.80;;;4.38;;
13173;SDS011;6652;48.802;9.190;2023-11-22T02:02:39;6.30;;;4.32;;
13173;SDS011;6652;48.802;9.190;2023-11-22T02:05:07;9.32;;;4.75;;
13173;SDS011;6652;48.802;9.190;2023-11-22T02:07:36;6.75;;;4.40;;
13173;SDS011;6652;48.802;9.190;2023-11-22T02:10:07;4.95;;;3.70;;
13173;SDS011;6652;48.802;9.190;2023-11-22T02:12:34;4.90;;;3.83;;
13173;SDS011;6652;48.802;9.190;2023-11-22T02:15:02;6.50;;;4.30;;
13173;SDS011;6652;48.802;9.190;2023-11-22T02:17:29;7.57;;;4.20;;
13173;SDS011;6652;48.802;9.190;2023-11-22T02:19:59;8.50;;;4.63;;
13173;SDS011;6652;48.802;9.190;2023-11-22T02:24:55;6.68;;;4.53;;
13173;SDS011;6652;48.802;9.190;2023-11-22T02:27:22;7.45;;;4.72;;
13173;SDS011;6652;48.802;9.190;2023-11-22T02:29:49;7.03;;;4.70;;
13173;SDS011;6652;48.802;9.190;2023-11-22T02:32:15;5.75;;;3.83;;
13173;SDS011;6652;48.802;9.190;2023-11-22T02:34:43;6.68;;;4.45;;
13173;SDS011;6652;48.802;9.190;2023-11-22T02:37:11;10.35;;;4.47;;
13173;SDS011;6652;48.802;9.190;2023-11-22T02:39:41;6.47;;;3.85;;
13173;SDS011;6652;48.802;9.190;2023-11-22T02:42:21;4.90;;;3.72;;
13173;SDS011;6652;48.802;9.190;2023-11-22T02:44:48;6.95;;;3.97;;
13173;SDS011;6652;48.802;9.190;2023-11-22T02:47:15;7.47;;;4.40;;
13173;SDS011;6652;48.802;9.190;2023-11-22T02:49:42;6.60;;;3.95;;
13173;SDS011;6652;48.802;9.190;2023-11-22T02:52:09;6.30;;;4.28;;
13173;SDS011;6652;48.802;9.190;2023-11-22T02:54:37;7.30;;;4.68;;
13173;SDS011;6652;48.802;9.190;2023-11-22T02:57:03;5.93;;;3.92;;
13173;SDS011;6652;48.802;9.190;2023-11-22T02:59:31;6.10;;;3.83;;
13173;SDS011;6652;48.802;9.190;2023-11-22T03:01:58;8.50;;;4.07;;
13173;SDS011;6652;48.802;9.190;2023-11-22T03:04:24;6.20;;;3.60;;
13173;SDS011;6652;48.802;9.190;2023-11-22T03:06:51;8.30;;;4.47;;
13173;SDS011;6652;48.802;9.190;2023-11-22T03:09:18;6.25;;;4.30;;
13173;SDS011;6652;48.802;9.190;2023-11-22T03:11:44;7.47;;;4.15;;
13173;SDS011;6652;48.802;9.190;2023-11-22T03:14:11;7.65;;;4.55;;
13173;SDS011;6652;48.802;9.190;2023-11-22T03:16:39;6.30;;;4.10;;
13173;SDS011;6652;48.802;9.190;2023-11-22T03:19:07;4.90;;;3.17;;
13173;SDS011;6652;48.802;9.190;2023-11-22T03:21:35;6.35;;;3.90;;
13173;SDS011;6652;48.802;9.190;2023-11-22T03:24:02;10.48;;;4.55;;
13173;SDS011;6652;48.802;9.190;2023-11-22T03:26:29;5.88;;;4.32;;
13173;SDS011;6652;48.802;9.190;2023-11-22T03:28:56;7.32;;;4.50;;
13173;SDS011;6652;48.802;9.190;2023-11-22T03:31:23;9.82;;;3.92;;
13173;SDS011;6652;48.802;9.190;2023-11-22T03:33:51;12.00;;;4.93;;
13173;SDS011;6652;48.802;9.190;2023-11-22T03:36:19;6.80;;;4.13;;
13173;SDS011;6652;48.802;9.190;2023-11-22T03:38:48;8.43;;;4.80;;
13173;SDS011;6652;48.802;9.190;2023-11-22T03:41:15;6.97;;;4.10;;
13173;SDS011;6652;48.802;9.190;2023-11-22T03:43:43;8.85;;;4.10;;
13173;SDS011;6652;48.802;9.190;2023-11-22T03:46:09;6.50;;;4.70;;
13173;SDS011;6652;48.802;9.190;2023-11-22T03:48:36;5.88;;;4.03;;
13173;SDS011;6652;48.802;9.190;2023-11-22T03:51:04;8.57;;;4.88;;
13173;SDS011;6652;48.802;9.190;2023-11-22T03:53:31;6.57;;;4.35;;
13173;SDS011;6652;48.802;9.190;2023-11-22T03:55:58;7.97;;;4.20;;
13173;SDS011;6652;48.802;9.190;2023-11-22T03:58:25;6.00;;;4.20;;
13173;SDS011;6652;48.802;9.190;2023-11-22T04:00:52;6.93;;;4.88;;
13173;SDS011;6652;48.802;9.190;2023-11-22T04:03:18;9.52;;;5.75;;
13173;SDS011;6652;48.802;9.190;2023-11-22T04:05:45;11.00;;;5.53;;
13173;SDS011;6652;48.802;9.190;2023-11-22T04:08:13;7.97;;;5.00;;
13173;SDS011;6652;48.802;9.190;2023-11-22T04:10:40;6.28;;;4.82;;
13173;SDS011;6652;48.802;9.190;2023-11-22T04:13:07;7.93;;;5.07;;
13173;SDS011;6652;48.802;9.190;2023-11-22T04:15:34;8.45;;;5.30;;
13173;SDS011;6652;48.802;9.190;2023-11-22T04:18:01;8.57;;;5.70;;
13173;SDS011;6652;48.802;9.190;2023-11-22T04:20:28;6.95;;;5.20;;
13173;SDS011;6652;48.802;9.190;2023-11-22T04:22:54;7.40;;;5.28;;
13173;SDS011;6652;48.802;9.190;2023-11-22T04:25:23;8.45;;;4.88;;
13173;SDS011;6652;48.802;9.190;2023-11-22T04:27:50;9.20;;;4.93;;
13173;SDS011;6652;48.802;9.190;2023-11-22T04:30:16;7.63;;;5.43;;
13173;SDS011;6652;48.802;9.190;2023-11-22T04:32:43;8.10;;;5.18;;
13173;SDS011;6652;48.802;9.190;2023-11-22T04:35:10;8.13;;;4.30;;
13173;SDS011;6652;48.802;9.190;2023-11-22T04:37:38;8.23;;;5.50;;
13173;SDS011;6652;48.802;9.190;2023-11-22T04:40:06;9.43;;;5.30;;
13173;SDS011;6652;48.802;9.190;2023-11-22T04:42:35;7.90;;;4.95;;
13173;SDS011;6652;48.802;9.190;2023-11-22T04:45:02;8.48;;;5.03;;
13173;SDS011;6652;48.802;9.190;2023-11-22T04:47:30;8.38;;;5.18;;
13173;SDS011;6652;48.802;9.190;2023-11-22T04:49:57;7.07;;;4.45;;
13173;SDS011;6652;48.802;9.190;2023-11-22T04:52:24;6.25;;;4.82;;
13173;SDS011;6652;48.802;9.190;2023-11-22T04:54:51;9.65;;;5.10;;
13173;SDS011;6652;48.802;9.190;2023-11-22T04:57:18;8.25;;;5.05;;
13173;SDS011;6652;48.802;9.190;2023-11-22T04:59:46;7.45;;;4.85;;
13173;SDS011;6652;48.802;9.190;2023-11-22T05:02:13;6.70;;;4.72;;
13173;SDS011;6652;48.802;9.190;2023-11-22T05:04:41;9.77;;;5.57;;
13173;SDS011;6652;48.802;9.190;2023-11-22T05:07:08;17.63;;;7.85;;
13173;SDS011;6652;48.802;9.190;2023-11-22T05:09:35;8.13;;;5.18;;
13173;SDS011;6652;48.802;9.190;2023-11-22T05:12:02;7.95;;;5.00;;
13173;SDS011;6652;48.802;9.190;2023-11-22T05:14:29;7.70;;;4.75;;
13173;SDS011;6652;48.802;9.190;2023-11-22T05:16:57;7.72;;;4.43;;
13173;SDS011;6652;48.802;9.190;2023-11-22T05:19:24;11.00;;;4.45;;
13173;SDS011;6652;48.802;9.190;2023-11-22T05:21:51;7.93;;;4.50;;
13173;SDS011;6652;48.802;9.190;2023-11-22T05:24:17;7.82;;;5.00;;
13173;SDS011;6652;48.802;9.190;2023-11-22T05:26:44;6.72;;;4.88;;
13173;SDS011;6652;48.802;9.190;2023-11-22T05:29:11;8.70;;;4.18;;
13173;SDS011;6652;48.802;9.190;2023-11-22T05:31:38;8.82;;;5.07;;
13173;SDS011;6652;48.802;9.190;2023-11-22T05:34:06;7.68;;;4.75;;
13173;SDS011;6652;48.802;9.190;2023-11-22T05:36:33;8.63;;;4.65;;
13173;SDS011;6652;48.802;9.190;2023-11-22T05:39:00;8.52;;;4.30;;
13173;SDS011;6652;48.802;9.190;2023-11-22T05:41:28;14.05;;;4.60;;
13173;SDS011;6652;48.802;9.190;2023-11-22T05:43:56;6.10;;;4.00;;
13173;SDS011;6652;48.802;9.190;2023-11-22T05:46:23;5.60;;;4.10;;
13173;SDS011;6652;48.802;9.190;2023-11-22T05:48:50;8.75;;;4.88;;
13173;SDS011;6652;48.802;9.190;2023-11-22T05:51:19;9.43;;;4.63;;
13173;SDS011;6652;48.802;9.190;2023-11-22T05:53:46;6.03;;;3.92;;
13173;SDS011;6652;48.802;9.190;2023-11-22T05:56:12;8.07;;;4.38;;
13173;SDS011;6652;48.802;9.190;2023-11-22T05:58:40;9.68;;;4.30;;
13173;SDS011;6652;48.802;9.190;2023-11-22T06:01:07;6.68;;;4.07;;
13173;SDS011;6652;48.802;9.190;2023-11-22T06:03:34;5.85;;;4.00;;
13173;SDS011;6652;48.802;9.190;2023-11-22T06:06:02;7.63;;;4.70;;
13173;SDS011;6652;48.802;9.190;2023-11-22T06:08:30;15.90;;;4.72;;
13173;SDS011;6652;48.802;9.190;2023-11-22T06:10:57;8.40;;;4.25;;
13173;SDS011;6652;48.802;9.190;2023-11-22T06:13:24;8.85;;;4.70;;
13173;SDS011;6652;48.802;9.190;2023-11-22T06:15:51;7.00;;;4.35;;
13173;SDS011;6652;48.802;9.190;2023-11-22T06:18:18;7.18;;;4.68;;
13173;SDS011;6652;48.802;9.190;2023-11-22T06:20:45;7.65;;;4.47;;
13173;SDS011;6652;48.802;9.190;2023-11-22T06:23:12;7.75;;;4.20;;
13173;SDS011;6652;48.802;9.190;2023-11-22T06:25:41;6.43;;;4.18;;
13173;SDS011;6652;48.802;9.190;2023-11-22T06:28:09;6.57;;;3.75;;
13173;SDS011;6652;48.802;9.190;2023-11-22T06:30:35;6.57;;;4.25;;
13173;SDS011;6652;48.802;9.190;2023-11-22T06:33:02;5.88;;;4.07;;
13173;SDS011;6652;48.802;9.190;2023-11-22T06:35:29;6.93;;;4.00;;
13173;SDS011;6652;48.802;9.190;2023-11-22T06:37:56;9.52;;;3.75;;
13173;SDS011;6652;48.802;9.190;2023-11-22T06:40:23;9.70;;;3.85;;
13173;SDS011;6652;48.802;9.190;2023-11-22T06:42:51;4.68;;;3.40;;
13173;SDS011;6652;48.802;9.190;2023-11-22T06:45:18;5.30;;;3.58;;
13173;SDS011;6652;48.802;9.190;2023-11-22T06:47:47;9.13;;;4.65;;
13173;SDS011;6652;48.802;9.190;2023-11-22T06:50:15;12.93;;;4.90;;
13173;SDS011;6652;48.802;9.190;2023-11-22T06:52:43;7.18;;;4.35;;
13173;SDS011;6652;48.802;9.190;2023-11-22T06:55:12;5.20;;;3.63;;
13173;SDS011;6652;48.802;9.190;2023-11-22T06:57:39;7.68;;;4.20;;
13173;SDS011;6652;48.802;9.190;2023-11-22T07:00:07;8.80;;;4.07;;
13173;SDS011;6652;48.802;9.190;2023-11-22T07:02:35;9.52;;;5.82;;
13173;SDS011;6652;48.802;9.190;2023-11-22T07:05:02;10.13;;;3.92;;
13173;SDS011;6652;48.802;9.190;2023-11-22T07:07:32;6.47;;;4.22;;
13173;SDS011;6652;48.802;9.190;2023-11-22T07:09:58;7.90;;;3.40;;
13173;SDS011;6652;48.802;9.190;2023-11-22T07:12:25;5.78;;;3.95;;
13173;SDS011;6652;48.802;9.190;2023-11-22T07:14:52;7.22;;;3.65;;
13173;SDS011;6652;48.802;9.190;2023-11-22T07:17:20;10.30;;;3.42;;
13173;SDS011;6652;48.802;9.190;2023-11-22T07:19:47;10.10;;;3.55;;
13173;SDS011;6652;48.802;9.190;2023-11-22T07:22:16;6.03;;;3.30;;
13173;SDS011;6652;48.802;9.190;2023-11-22T07:24:44;5.05;;;3.30;;
13173;SDS011;6652;48.802;9.190;2023-11-22T07:27:12;9.00;;;4.07;;
13173;SDS011;6652;48.802;9.190;2023-11-22T07:29:39;7.20;;;3.70;;
13173;SDS011;6652;48.802;9.190;2023-11-22T07:32:06;12.07;;;2.90;;
13173;SDS011;6652;48.802;9.190;2023-11-22T07:34:36;5.90;;;3.60;;
13173;SDS011;6652;48.802;9.190;2023-11-22T07:37:05;6.25;;;3.53;;
13173;SDS011;6652;48.802;9.190;2023-11-22T07:39:33;9.15;;;3.80;;
13173;SDS011;6652;48.802;9.190;2023-11-22T07:42:00;7.82;;;3.95;;
13173;SDS011;6652;48.802;9.190;2023-11-22T07:44:27;6.72;;;3.20;;
13173;SDS011;6652;48.802;9.190;2023-11-22T07:46:57;6.05;;;3.42;;
13173;SDS011;6652;48.802;9.190;2023-11-22T07:49:25;8.43;;;3.45;;
13173;SDS011;6652;48.802;9.190;2023-11-22T07:51:53;5.00;;;3.03;;
13173;SDS011;6652;48.802;9.190;2023-11-22T07:54:21;9.02;;;3.35;;
13173;SDS011;6652;48.802;9.190;2023-11-22T07:56:48;4.80;;;2.95;;
13173;SDS011;6652;48.802;9.190;2023-11-22T07:59:15;8.20;;;3.40;;
13173;SDS011;6652;48.802;9.190;2023-11-22T08:01:42;6.03;;;3.28;;
13173;SDS011;6652;48.802;9.190;2023-11-22T08:04:09;10.65;;;3.30;;
13173;SDS011;6652;48.802;9.190;2023-11-22T08:06:37;11.70;;;3.53;;
13173;SDS011;6652;48.802;9.190;2023-11-22T08:09:05;5.07;;;3.45;;
13173;SDS011;6652;48.802;9.190;2023-11-22T08:11:34;14.38;;;3.13;;
13173;SDS011;6652;48.802;9.190;2023-11-22T08:14:01;7.32;;;3.53;;
13173;SDS011;6652;48.802;9.190;2023-11-22T08:16:27;9.50;;;3.72;;
13173;SDS011;6652;48.802;9.190;2023-11-22T08:18:55;9.23;;;3.55;;
13173;SDS011;6652;48.802;9.190;2023-11-22T08:21:21;7.18;;;3.65;;
13173;SDS011;6652;48.802;9.190;2023-11-22T08:23:49;9.38;;;3.97;;
13173;SDS011;6652;48.802;9.190;2023-11-22T08:26:17;6.97;;;3.38;;
13173;SDS011;6652;48.802;9.190;2023-11-22T08:28:44;9.43;;;3.58;;
13173;SDS011;6652;48.802;9.190;2023-11-22T08:31:10;8.15;;;4.13;;
13173;SDS011;6652;48.802;9.190;2023-11-22T08:33:37;6.85;;;4.13;;
13173;SDS011;6652;48.802;9.190;2023-11-22T08:36:05;8.15;;;4.35;;
13173;SDS011;6652;48.802;9.190;2023-11-22T08:38:33;8.02;;;3.80;;
13173;SDS011;6652;48.802;9.190;2023-11-22T08:41:00;7.03;;;3.92;;
13173;SDS011;6652;48.802;9.190;2023-11-22T08:43:29;5.95;;;4.03;;
13173;SDS011;6652;48.802;9.190;2023-11-22T08:45:57;9.88;;;4.35;;
13173;SDS011;6652;48.802;9.190;2023-11-22T08:48:24;5.10;;;3.55;;
13173;SDS011;6652;48.802;9.190;2023-11-22T08:50:52;8.57;;;4.72;;
13173;SDS011;6652;48.802;9.190;2023-11-22T08:53:21;6.30;;;4.13;;
13173;SDS011;6652;48.802;9.190;2023-11-22T08:55:47;7.78;;;5.30;;
13173;SDS011;6652;48.802;9.190;2023-11-22T08:58:14;9.38;;;3.95;;
13173;SDS011;6652;48.802;9.190;2023-11-22T09:00:42;9.75;;;4.53;;
13173;SDS011;6652;48.802;9.190;2023-11-22T09:03:10;7.25;;;4.57;;
13173;SDS011;6652;48.802;9.190;2023-11-22T09:05:38;7.10;;;3.65;;
13173;SDS011;6652;48.802;9.190;2023-11-22T09:08:05;8.27;;;4.30;;
13173;SDS011;6652;48.802;9.190;2023-11-22T09:10:38;8.38;;;4.55;;
13173;SDS011;6652;48.802;9.190;2023-11-22T09:13:06;8.85;;;4.70;;
13173;SDS011;6652;48.802;9.190;2023-11-22T09:15:32;6.85;;;4.53;;
13173;SDS011;6652;48.802;9.190;2023-11-22T09:18:01;6.85;;;4.03;;
13173;SDS011;6652;48.802;9.190;2023-11-22T09:20:29;6.57;;;4.00;;
13173;SDS011;6652;48.802;9.190;2023-11-22T09:22:56;7.28;;;4.38;;
13173;SDS011;6652;48.802;9.190;2023-11-22T09:25:23;7.25;;;4.28;;
13173;SDS011;6652;48.802;9.190;2023-11-22T09:27:53;14.00;;;4.28;;
13173;SDS011;6652;48.802;9.190;2023-11-22T09:30:24;10.65;;;5.22;;
13173;SDS011;6652;48.802;9.190;2023-11-22T09:33:04;7.63;;;4.63;;
13173;SDS011;6652;48.802;9.190;2023-11-22T09:35:32;12.02;;;6.65;;
13173;SDS011;6652;48.802;9.190;2023-11-22T09:38:00;8.13;;;4.72;;
13173;SDS011;6652;48.802;9.190;2023-11-22T09:40:27;11.63;;;4.53;;
13173;SDS011;6652;48.802;9.190;2023-11-22T09:42:56;11.05;;;4.50;;
13173;SDS011;6652;48.802;9.190;2023-11-22T09:45:24;13.10;;;5.10;;
13173;SDS011;6652;48.802;9.190;2023-11-22T09:47:51;7.85;;;4.60;;
13173;SDS011;6652;48.802;9.190;2023-11-22T09:50:21;8.25;;;4.72;;
13173;SDS011;6652;48.802;9.190;2023-11-22T09:53:02;9.43;;;4.60;;
13173;SDS011;6652;48.802;9.190;2023-11-22T09:55:34;11.15;;;5.00;;
13173;SDS011;6652;48.802;9.190;2023-11-22T09:58:02;8.30;;;5.25;;
13173;SDS011;6652;48.802;9.190;2023-11-22T10:00:31;8.57;;;4.82;;
13173;SDS011;6652;48.802;9.190;2023-11-22T10:02:58;9.05;;;4.97;;
13173;SDS011;6652;48.802;9.190;2023-11-22T10:05:26;11.27;;;5.53;;
13173;SDS011;6652;48.802;9.190;2023-11-22T10:07:53;10.05;;;5.45;;
13173;SDS011;6652;48.802;9.190;2023-11-22T10:10:20;9.52;;;5.28;;
13173;SDS011;6652;48.802;9.190;2023-11-22T10:12:52;8.27;;;5.10;;
13173;SDS011;6652;48.802;9.190;2023-11-22T10:15:21;7.65;;;4.90;;
13173;SDS011;6652;48.802;9.190;2023-11-22T10:17:53;8.38;;;4.63;;
13173;SDS011;6652;48.802;9.190;2023-11-22T10:20:22;10.85;;;5.07;;
13173;SDS011;6652;48.802;9.190;2023-11-22T10:22:52;14.07;;;7.20;;
13173;SDS011;6652;48.802;9.190;2023-11-22T10:32:12;8.60;;;4.95;;
13173;SDS011;6652;48.802;9.190;2023-11-22T10:34:39;9.70;;;4.93;;
13173;SDS011;6652;48.802;9.190;2023-11-22T10:37:06;9.20;;;5.32;;
13173;SDS011;6652;48.802;9.190;2023-11-22T10:39:36;8.52;;;5.00;;
13173;SDS011;6652;48.802;9.190;2023-11-22T10:42:03;9.95;;;5.07;;
13173;SDS011;6652;48.802;9.190;2023-11-22T10:44:33;10.00;;;5.57;;
13173;SDS011;6652;48.802;9.190;2023-11-22T10:47:03;10.93;;;5.20;;
13173;SDS011;6652;48.802;9.190;2023-11-22T10:49:32;10.27;;;5.35;;
13173;SDS011;6652;48.802;9.190;2023-11-22T10:52:00;10.40;;;5.82;;
13173;SDS011;6652;48.802;9.190;2023-11-22T10:54:29;8.77;;;5.40;;
13173;SDS011;6652;48.802;9.190;2023-11-22T10:56:58;8.13;;;5.20;;
13173;SDS011;6652;48.802;9.190;2023-11-22T10:59:27;11.57;;;6.40;;
13173;SDS011;6652;48.802;9.190;2023-11-22T11:01:56;12.80;;;5.88;;
13173;SDS011;6652;48.802;9.190;2023-11-22T11:04:29;9.10;;;5.00;;
13173;SDS011;6652;48.802;9.190;2023-11-22T11:07:01;11.82;;;6.07;;
13173;SDS011;6652;48.802;9.190;2023-11-22T11:09:30;12.40;;;6.13;;
13173;SDS011;6652;48.802;9.190;2023-11-22T11:12:00;8.80;;;5.25;;
13173;SDS011;6652;48.802;9.190;2023-11-22T11:14:28;7.68;;;5.32;;
13173;SDS011;6652;48.802;9.190;2023-11-22T11:16:56;6.82;;;5.20;;
13173;SDS011;6652;48.802;9.190;2023-11-22T11:19:23;8.75;;;5.40;;
13173;SDS011;6652;48.802;9.190;2023-11-22T11:21:51;8.75;;;5.78;;
13173;SDS011;6652;48.802;9.190;2023-11-22T11:24:18;9.65;;;6.07;;
13173;SDS011;6652;48.802;9.190;2023-11-22T11:26:47;11.85;;;6.00;;
13173;SDS011;6652;48.802;9.190;2023-11-22T11:29:31;9.90;;;5.90;;
13173;SDS011;6652;48.802;9.190;2023-11-22T11:31:59;10.82;;;6.05;;
13173;SDS011;6652;48.802;9.190;2023-11-22T11:34:28;9.60;;;5.40;;
13173;SDS011;6652;48.802;9.190;2023-11-22T11:36:55;12.23;;;5.88;;
13173;SDS011;6652;48.802;9.190;2023-11-22T11:39:25;11.32;;;5.90;;
13173;SDS011;6652;48.802;9.190;2023-11-22T11:42:07;8.77;;;6.07;;
13173;SDS011;6652;48.802;9.190;2023-11-22T11:44:35;11.13;;;5.55;;
13173;SDS011;6652;48.802;9.190;2023-11-22T11:47:08;11.75;;;5.70;;
13173;SDS011;6652;48.802;9.190;2023-11-22T11:49:36;6.70;;;4.63;;
13173;SDS011;6652;48.802;9.190;2023-11-22T11:52:04;9.70;;;5.40;;
13173;SDS011;6652;48.802;9.190;2023-11-22T11:54:31;16.52;;;6.57;;
13173;SDS011;6652;48.802;9.190;2023-11-22T11:56:58;9.15;;;5.88;;
13173;SDS011;6652;48.802;9.190;2023-11-22T11:59:25;9.68;;;6.10;;
13173;SDS011;6652;48.802;9.190;2023-11-22T12:01:54;8.43;;;5.80;;
13173;SDS011;6652;48.802;9.190;2023-11-22T12:04:22;9.13;;;6.15;;
13173;SDS011;6652;48.802;9.190;2023-11-22T12:06:51;13.18;;;6.05;;
13173;SDS011;6652;48.802;9.190;2023-11-22T12:09:22;11.07;;;5.47;;
13173;SDS011;6652;48.802;9.190;2023-11-22T12:11:50;10.98;;;6.10;;
13173;SDS011;6652;48.802;9.190;2023-11-22T12:14:18;9.70;;;6.10;;
13173;SDS011;6652;48.802;9.190;2023-11-22T12:16:46;11.77;;;5.85;;
13173;SDS011;6652;48.802;9.190;2023-11-22T12:19:21;10.10;;;5.75;;
13173;SDS011;6652;48.802;9.190;2023-11-22T12:21:48;9.68;;;6.15;;
13173;SDS011;6652;48.802;9.190;2023-11-22T12:24:15;13.70;;;6.32;;
13173;SDS011;6652;48.802;9.190;2023-11-22T12:26:44;10.85;;;5.40;;
13173;SDS011;6652;48.802;9.190;2023-11-22T12:29:11;9.75;;;6.10;;
13173;SDS011;6652;48.802;9.190;2023-11-22T12:31:43;11.45;;;6.00;;
13173;SDS011;6652;48.802;9.190;2023-11-22T12:34:11;10.02;;;6.05;;
13173;SDS011;6652;48.802;9.190;2023-11-22T12:36:41;10.52;;;5.47;;
13173;SDS011;6652;48.802;9.190;2023-11-22T12:39:08;8.50;;;5.55;;
13173;SDS011;6652;48.802;9.190;2023-11-22T12:41:42;12.18;;;5.90;;
13173;SDS011;6652;48.802;9.190;2023-11-22T12:44:10;10.27;;;5.70;;
13173;SDS011;6652;48.802;9.190;2023-11-22T12:46:48;10.48;;;6.18;;
13173;SDS011;6652;48.802;9.190;2023-11-22T12:49:23;12.18;;;7.00;;
13173;SDS011;6652;48.802;9.190;2023-11-22T12:51:52;13.73;;;6.35;;
13173;SDS011;6652;48.802;9.190;2023-11-22T12:54:20;9.98;;;6.00;;
13173;SDS011;6652;48.802;9.190;2023-11-22T12:56:48;8.82;;;6.15;;
13173;SDS011;6652;48.802;9.190;2023-11-22T12:59:16;9.40;;;5.70;;
13173;SDS011;6652;48.802;9.190;2023-11-22T13:01:44;12.00;;;5.55;;
13173;SDS011;6652;48.802;9.190;2023-11-22T13:04:10;10.70;;;5.85;;
13173;SDS011;6652;48.802;9.190;2023-11-22T13:06:39;10.73;;;7.15;;
13173;SDS011;6652;48.802;9.190;2023-11-22T13:09:08;9.35;;;5.82;;
13173;SDS011;6652;48.802;9.190;2023-11-22T13:11:39;13.00;;;6.25;;
13173;SDS011;6652;48.802;9.190;2023-11-22T13:14:07;15.60;;;6.57;;
13173;SDS011;6652;48.802;9.190;2023-11-22T13:16:34;14.15;;;6.22;;
13173;SDS011;6652;48.802;9.190;2023-11-22T13:19:03;10.80;;;6.57;;
13173;SDS011;6652;48.802;9.190;2023-11-22T13:21:30;14.18;;;6.15;;
13173;SDS011;6652;48.802;9.190;2023-11-22T13:23:58;12.45;;;5.72;;
13173;SDS011;6652;48.802;9.190;2023-11-22T13:26:26;9.93;;;5.43;;
13173;SDS011;6652;48.802;9.190;2023-11-22T13:28:53;14.27;;;6.60;;
13173;SDS011;6652;48.802;9.190;2023-11-22T13:31:21;11.32;;;6.70;;
13173;SDS011;6652;48.802;9.190;2023-11-22T13:33:48;11.18;;;6.38;;
13173;SDS011;6652;48.802;9.190;2023-11-22T13:36:15;11.23;;;6.28;;
13173;SDS011;6652;48.802;9.190;2023-11-22T13:38:43;11.07;;;6.72;;
13173;SDS011;6652;48.802;9.190;2023-11-22T13:41:10;12.25;;;6.47;;
13173;SDS011;6652;48.802;9.190;2023-11-22T13:43:38;12.32;;;6.30;;
13173;SDS011;6652;48.802;9.190;2023-11-22T13:46:06;12.20;;;6.00;;
13173;SDS011;6652;48.802;9.190;2023-11-22T13:48:35;10.20;;;6.32;;
13173;SDS011;6652;48.802;9.190;2023-11-22T13:51:02;11.32;;;6.07;;
13173;SDS011;6652;48.802;9.190;2023-11-22T13:53:29;9.55;;;6.20;;
13173;SDS011;6652;48.802;9.190;2023-11-22T13:55:59;9.35;;;5.90;;
13173;SDS011;6652;48.802;9.190;2023-11-22T13:58:33;16.08;;;7.00;;
13173;SDS011;6652;48.802;9.190;2023-11-22T14:01:01;12.70;;;6.72;;
13173;SDS011;6652;48.802;9.190;2023-11-22T14:03:31;11.95;;;6.75;;
13173;SDS011;6652;48.802;9.190;2023-11-22T14:05:57;11.75;;;6.00;;
13173;SDS011;6652;48.802;9.190;2023-11-22T14:08:25;13.23;;;6.70;;
13173;SDS011;6652;48.802;9.190;2023-11-22T14:14:14;11.00;;;6.55;;
13173;SDS011;6652;48.802;9.190;2023-11-22T14:16:45;13.30;;;7.00;;
13173;SDS011;6652;48.802;9.190;2023-11-22T14:19:14;17.15;;;7.65;;
13173;SDS011;6652;48.802;9.190;2023-11-22T14:21:40;12.10;;;7.53;;
13173;SDS011;6652;48.802;9.190;2023-11-22T14:24:07;12.90;;;7.07;;
13173;SDS011;6652;48.802;9.190;2023-11-22T14:26:35;12.25;;;6.88;;
13173;SDS011;6652;48.802;9.190;2023-11-22T14:29:02;11.93;;;7.10;;
13173;SDS011;6652;48.802;9.190;2023-11-22T14:31:30;10.82;;;6.80;;
13173;SDS011;6652;48.802;9.190;2023-11-22T14:33:58;12.25;;;6.85;;
13173;SDS011;6652;48.802;9.190;2023-11-22T14:36:26;10.77;;;5.97;;
13173;SDS011;6652;48.802;9.190;2023-11-22T14:38:53;10.30;;;5.88;;
13173;SDS011;6652;48.802;9.190;2023-11-22T14:41:21;9.77;;;5.88;;
13173;SDS011;6652;48.802;9.190;2023-11-22T14:43:48;9.20;;;6.15;;
13173;SDS011;6652;48.802;9.190;2023-11-22T14:46:15;16.70;;;7.07;;
13173;SDS011;6652;48.802;9.190;2023-11-22T14:48:42;10.02;;;6.30;;
13173;SDS011;6652;48.802;9.190;2023-11-22T14:51:13;11.65;;;6.68;;
13173;SDS011;6652;48.802;9.190;2023-11-22T14:53:40;9.85;;;6.50;;
13173;SDS011;6652;48.802;9.190;2023-11-22T14:56:09;12.15;;;6.78;;
13173;SDS011;6652;48.802;9.190;2023-11-22T14:58:36;15.30;;;6.55;;
13173;SDS011;6652;48.802;9.190;2023-11-22T15:01:03;14.98;;;6.85;;
13173;SDS011;6652;48.802;9.190;2023-11-22T15:03:33;11.50;;;6.95;;
13173;SDS011;6652;48.802;9.190;2023-11-22T15:06:00;10.75;;;6.47;;
13173;SDS011;6652;48.802;9.190;2023-11-22T15:08:28;14.23;;;6.70;;
13173;SDS011;6652;48.802;9.190;2023-11-22T15:10:57;14.00;;;7.30;;
13173;SDS011;6652;48.802;9.190;2023-11-22T15:13:24;12.02;;;6.78;;
13173;SDS011;6652;48.802;9.190;2023-11-22T15:15:52;13.73;;;6.80;;